createdAt,value
2019-03-08T00:02:21.930Z,15.47
2019-03-08T00:07:27.414Z,14.73
2019-03-08T00:12:32.899Z,11.22
2019-03-08T00:17:38.100Z,9.28
2019-03-08T00:22:43.404Z,7.58
2019-03-08T00:27:48.658Z,11.43
2019-03-08T00:32:54.102Z,7.23
2019-03-08T00:37:59.375Z,14.13
2019-03-08T00:43:04.917Z,22.63
2019-03-08T00:48:10.158Z,18.40
2019-03-08T00:53:15.829Z,10.73
2019-03-08T00:58:21.277Z,17.23
2019-03-08T01:03:26.512Z,16.57
2019-03-08T01:08:32.014Z,12.30
2019-03-08T01:13:37.312Z,23.37
2019-03-08T01:18:42.605Z,17.63
2019-03-08T01:23:47.840Z,20.35
2019-03-08T01:28:53.115Z,20.33
2019-03-08T01:33:58.321Z,19.73
2019-03-08T01:39:04.695Z,19.10
2019-03-08T01:44:09.990Z,14.07
2019-03-08T01:49:15.226Z,19.03
2019-03-08T01:54:20.689Z,12.17
2019-03-08T01:59:25.961Z,14.17
2019-03-08T02:04:32.161Z,13.10
2019-03-08T02:09:37.390Z,16.17
2019-03-08T02:14:42.783Z,10.13
2019-03-08T02:19:48.175Z,14.78
2019-03-08T02:24:53.387Z,16.63
2019-03-08T02:29:58.665Z,16.67
2019-03-08T02:35:04.005Z,14.73
2019-03-08T02:40:27.180Z,9.57
2019-03-08T02:45:32.686Z,15.47
2019-03-08T02:50:38.120Z,11.22
2019-03-08T02:55:43.370Z,8.23
2019-03-08T03:00:48.926Z,12.15
2019-03-08T03:05:54.202Z,9.40
2019-03-08T03:10:59.440Z,9.47
2019-03-08T03:16:04.741Z,6.60
2019-03-08T03:21:09.945Z,12.50
2019-03-08T03:26:15.264Z,13.40
2019-03-08T03:31:20.497Z,8.33
2019-03-08T03:36:25.775Z,9.70
2019-03-08T03:41:31.365Z,6.40
2019-03-08T03:46:36.635Z,10.97
2019-03-08T03:51:41.870Z,5.83
2019-03-08T03:56:47.130Z,11.10
2019-03-08T04:01:52.360Z,8.47
2019-03-08T04:06:57.596Z,8.35
2019-03-08T04:12:02.815Z,6.60
2019-03-08T04:17:08.071Z,9.33
2019-03-08T04:22:13.355Z,9.80
2019-03-08T04:27:18.581Z,7.83
2019-03-08T04:32:23.801Z,8.97
2019-03-08T04:37:29.139Z,7.87
2019-03-08T04:42:34.419Z,7.63
2019-03-08T04:47:39.746Z,6.33
2019-03-08T04:52:45.053Z,11.60
2019-03-08T04:57:50.448Z,6.87
2019-03-08T05:02:55.759Z,5.57
2019-03-08T05:08:00.984Z,9.53
2019-03-08T05:13:06.242Z,11.33
2019-03-08T05:18:11.517Z,11.03
2019-03-08T05:23:16.999Z,8.97
2019-03-08T05:28:22.282Z,6.73
2019-03-08T05:33:27.482Z,8.23
2019-03-08T05:38:32.830Z,8.50
2019-03-08T05:43:38.090Z,4.67
2019-03-08T05:48:43.315Z,6.70
2019-03-08T05:53:48.605Z,10.72
2019-03-08T05:58:53.803Z,11.50
2019-03-08T06:03:59.075Z,7.60
2019-03-08T06:09:05.873Z,6.10
2019-03-08T06:14:11.146Z,9.80
2019-03-08T06:19:16.410Z,4.80
2019-03-08T06:24:21.737Z,8.37
2019-03-08T06:29:27.142Z,8.00
2019-03-08T06:34:32.936Z,3.60
2019-03-08T06:39:38.348Z,5.87
2019-03-08T06:44:43.618Z,3.47
2019-03-08T06:49:48.856Z,5.03
2019-03-08T06:54:54.243Z,4.20
2019-03-08T07:00:07.276Z,3.60
2019-03-08T07:05:12.535Z,3.57
2019-03-08T07:10:17.844Z,3.90
2019-03-08T07:15:23.382Z,7.57
2019-03-08T07:20:36.987Z,5.03
2019-03-08T07:25:54.186Z,5.67
2019-03-08T07:31:11.436Z,6.87
2019-03-08T07:36:24.952Z,6.77
2019-03-08T07:41:38.078Z,6.10
2019-03-08T07:46:52.027Z,6.53
2019-03-08T07:52:07.112Z,4.43
2019-03-08T07:57:21.059Z,4.80
2019-03-08T08:02:34.987Z,4.47
2019-03-08T08:07:46.727Z,6.90
2019-03-08T08:13:02.024Z,5.63
2019-03-08T08:18:14.819Z,6.57
2019-03-08T08:23:34.352Z,15.07
2019-03-08T08:28:50.649Z,5.77
2019-03-08T08:34:05.246Z,7.40
2019-03-08T08:39:32.240Z,6.73
2019-03-08T08:44:49.491Z,4.23
2019-03-08T08:50:03.155Z,9.53
2019-03-08T08:55:19.597Z,7.47
2019-03-08T09:00:31.900Z,13.20
2019-03-08T09:05:42.426Z,9.40
2019-03-08T09:10:54.725Z,10.90
2019-03-08T09:21:26.702Z,7.20
2019-03-08T09:26:39.985Z,11.50
2019-03-08T09:31:53.321Z,10.45
2019-03-08T09:37:09.310Z,7.73
2019-03-08T09:42:22.995Z,4.60
2019-03-08T09:47:36.939Z,9.57
2019-03-08T09:52:51.122Z,8.45
2019-03-08T09:58:15.234Z,11.20
2019-03-08T10:03:39.382Z,5.87
2019-03-08T10:08:53.918Z,9.40
2019-03-08T10:14:09.144Z,10.57
2019-03-08T10:19:30.000Z,7.33
2019-03-08T10:24:51.287Z,11.30
2019-03-08T10:30:04.997Z,10.43
2019-03-08T10:35:23.965Z,8.97
2019-03-08T10:40:34.915Z,10.00
2019-03-08T10:45:50.105Z,8.85
2019-03-08T10:51:01.670Z,7.20
2019-03-08T10:56:23.349Z,5.43
2019-03-08T11:01:35.561Z,4.33
2019-03-08T11:06:50.348Z,5.30
2019-03-08T11:12:03.995Z,2.47
2019-03-08T11:17:11.230Z,4.53
2019-03-08T11:22:25.007Z,6.27
2019-03-08T11:27:44.011Z,5.30
2019-03-08T11:32:57.975Z,2.23
2019-03-08T11:38:11.969Z,5.20
2019-03-08T11:43:28.995Z,2.83
2019-03-08T11:48:46.960Z,6.00
2019-03-08T11:54:05.130Z,2.97
2019-03-08T11:59:23.410Z,3.83
2019-03-08T12:04:36.916Z,5.47
2019-03-08T12:09:47.161Z,6.67
2019-03-08T12:15:00.983Z,3.40
2019-03-08T12:20:14.189Z,5.37
2019-03-08T12:25:34.014Z,4.87
2019-03-08T12:30:52.643Z,3.53
2019-03-08T12:36:05.981Z,4.13
2019-03-08T12:41:25.115Z,6.00
2019-03-08T12:46:39.010Z,2.00
2019-03-08T12:51:53.160Z,2.83
2019-03-08T12:57:06.911Z,3.13
2019-03-08T13:02:19.364Z,2.97
2019-03-08T13:07:34.231Z,4.70
2019-03-08T13:12:39.566Z,2.92
2019-03-08T13:17:45.021Z,4.67
2019-03-08T13:22:50.403Z,3.52
2019-03-08T13:27:55.895Z,3.07
2019-03-08T13:33:01.300Z,4.23
2019-03-08T13:38:09.847Z,2.27
2019-03-08T13:43:15.231Z,2.57
2019-03-08T13:48:20.588Z,1.83
2019-03-08T13:53:25.864Z,3.70
2019-03-08T13:58:31.174Z,3.07
2019-03-08T14:03:36.690Z,2.83
2019-03-08T14:08:41.996Z,4.30
2019-03-08T14:13:47.695Z,2.62
2019-03-08T14:18:52.956Z,1.90
2019-03-08T14:23:58.631Z,2.30
2019-03-08T14:29:03.950Z,2.30
2019-03-08T14:34:10.830Z,1.20
2019-03-08T14:39:17.697Z,0.63
2019-03-08T14:44:34.986Z,1.13
2019-03-08T14:49:40.225Z,0.80
2019-03-08T14:54:46.416Z,0.90
2019-03-08T14:59:53.040Z,0.83
2019-03-08T15:04:59.205Z,1.10
2019-03-08T15:10:07.726Z,2.10
2019-03-08T15:15:13.520Z,1.47
2019-03-08T15:20:19.201Z,2.37
2019-03-08T15:25:31.249Z,1.47
2019-03-08T15:30:35.596Z,1.30
2019-03-08T15:35:40.953Z,2.93
2019-03-08T15:40:46.367Z,8.00
2019-03-08T15:45:53.846Z,10.43
2019-03-08T15:50:59.583Z,22.33
2019-03-08T15:56:05.306Z,14.33
2019-03-08T16:01:10.725Z,13.13
2019-03-08T16:06:16.375Z,30.97
2019-03-08T16:11:21.625Z,39.20
2019-03-08T16:16:27.454Z,81.13
2019-03-08T16:21:32.728Z,169.63
2019-03-08T16:26:38.206Z,198.40
2019-03-08T16:31:49.700Z,122.78
2019-03-08T16:37:00.124Z,89.03
2019-03-08T16:42:10.260Z,182.43
2019-03-08T16:47:24.006Z,207.93
2019-03-08T16:52:38.004Z,261.30
2019-03-08T16:57:54.922Z,30.62
2019-03-08T17:03:09.226Z,28.70
2019-03-08T17:08:21.771Z,16.00
2019-03-08T17:13:37.640Z,26.87
2019-03-08T17:18:54.746Z,28.53
2019-03-08T17:24:08.961Z,24.47
2019-03-08T17:29:23.462Z,24.93
2019-03-08T17:34:41.026Z,25.50
2019-03-08T17:39:53.506Z,26.90
2019-03-08T17:45:07.131Z,22.17
2019-03-08T17:50:21.047Z,23.83
2019-03-08T17:55:36.591Z,25.17
2019-03-08T18:01:00.764Z,22.62
2019-03-08T18:06:15.029Z,23.47
2019-03-08T18:11:39.658Z,31.80
2019-03-08T18:16:54.491Z,28.13
2019-03-08T18:22:06.393Z,28.90
2019-03-08T18:27:20.791Z,34.70
2019-03-08T18:32:32.856Z,37.07
2019-03-08T18:37:45.818Z,44.65
2019-03-08T18:42:57.872Z,42.13
2019-03-08T18:48:12.011Z,43.37
2019-03-08T18:53:26.014Z,31.97
2019-03-08T18:58:40.271Z,41.90
2019-03-08T19:04:04.529Z,36.65
2019-03-08T19:09:18.192Z,37.37
2019-03-08T19:14:36.429Z,40.87
2019-03-08T19:19:50.371Z,41.47
2019-03-08T19:25:05.280Z,45.43
2019-03-08T19:30:22.110Z,51.23
2019-03-08T19:35:42.672Z,51.10
2019-03-08T19:40:55.931Z,49.27
2019-03-08T19:46:12.831Z,44.40
2019-03-08T19:51:35.055Z,47.77
2019-03-08T19:56:46.710Z,37.63
2019-03-08T20:02:00.088Z,42.30
2019-03-08T20:07:23.288Z,42.47
2019-03-08T20:12:36.951Z,50.67
2019-03-08T20:18:01.207Z,47.77
2019-03-08T20:23:15.038Z,49.20
2019-03-08T20:28:28.992Z,57.83
2019-03-08T20:33:44.532Z,51.83
2019-03-08T20:38:58.018Z,42.90
2019-03-08T20:44:11.712Z,49.20
2019-03-08T20:49:17.191Z,44.30
2019-03-08T20:54:22.572Z,50.37
2019-03-08T20:59:28.286Z,52.07
2019-03-08T21:04:34.312Z,44.70
2019-03-08T21:09:42.691Z,42.63
2019-03-08T21:14:48.013Z,46.25
2019-03-08T21:19:53.751Z,41.73
2019-03-08T21:24:59.950Z,43.50
2019-03-08T21:30:07.311Z,45.83
2019-03-08T21:35:15.630Z,44.90
2019-03-08T21:40:21.352Z,46.50
2019-03-08T21:45:26.752Z,49.10
2019-03-08T21:50:32.487Z,42.33
2019-03-08T21:55:37.849Z,39.00
2019-03-08T22:00:43.630Z,51.68
2019-03-08T22:05:48.932Z,48.53
2019-03-08T22:11:04.091Z,40.33
2019-03-08T22:16:09.387Z,33.90
2019-03-08T22:21:14.811Z,35.13
2019-03-08T22:26:22.621Z,38.47
2019-03-08T22:31:27.958Z,37.50
2019-03-08T22:36:33.424Z,39.63
2019-03-08T22:41:38.842Z,42.23
2019-03-08T22:46:45.488Z,40.40
2019-03-08T22:51:51.035Z,41.30
2019-03-08T22:56:56.283Z,38.60
2019-03-08T23:02:08.146Z,42.80
2019-03-08T23:07:13.482Z,36.63
2019-03-08T23:12:18.934Z,32.97
2019-03-08T23:17:24.400Z,38.53
2019-03-08T23:22:29.737Z,33.40
2019-03-08T23:27:39.990Z,24.43
2019-03-08T23:32:48.225Z,28.25
2019-03-08T23:37:53.466Z,29.67
2019-03-08T23:42:58.809Z,28.03
2019-03-08T23:48:04.054Z,27.27
2019-03-08T23:53:09.334Z,27.07
2019-03-08T23:58:14.610Z,27.60
